sensor_id;sensor_type;location;lat;lon;timestamp;temperature;humidity
27270;DHT22;14769;56.934;24.176;2022-12-16T00:01:09;-7.90;99.90
27270;DHT22;14769;56.934;24.176;2022-12-16T00:02:11;-7.90;99.90
27270;DHT22;14769;56.934;24.176;2022-12-16T00:03:12;-7.90;99.90
27270;DHT22;14769;56.934;24.176;2022-12-16T00:04:14;-7.90;99.90
27270;DHT22;14769;56.934;24.176;2022-12-16T00:05:18;-7.90;99.90
27270;DHT22;14769;56.934;24.176;2022-12-16T00:06:24;-8.00;99.90
27270;DHT22;14769;56.934;24.176;2022-12-16T00:07:26;-8.00;99.90
27270;DHT22;14769;56.934;24.176;2022-12-16T00:08:28;-8.00;99.90
27270;DHT22;14769;56.934;24.176;2022-12-16T00:09:29;-8.00;99.90
27270;DHT22;14769;56.934;24.176;2022-12-16T00:10:31;-8.00;99.90
27270;DHT22;14769;56.934;24.176;2022-12-16T00:11:53;-8.10;99.90
27270;DHT22;14769;56.934;24.176;2022-12-16T00:12:55;-8.10;99.90
27270;DHT22;14769;56.934;24.176;2022-12-16T00:13:56;-8.20;99.90
27270;DHT22;14769;56.934;24.176;2022-12-16T00:14:58;-8.20;99.90
27270;DHT22;14769;56.934;24.176;2022-12-16T00:16:10;-8.20;99.90
27270;DHT22;14769;56.934;24.176;2022-12-16T00:17:12;-8.20;99.90
27270;DHT22;14769;56.934;24.176;2022-12-16T00:18:13;-8.20;99.90
27270;DHT22;14769;56.934;24.176;2022-12-16T00:19:15;-8.20;99.90
27270;DHT22;14769;56.934;24.176;2022-12-16T00:20:17;-8.20;99.90
27270;DHT22;14769;56.934;24.176;2022-12-16T00:21:18;-8.20;99.90
27270;DHT22;14769;56.934;24.176;2022-12-16T00:22:21;-8.20;99.90
27270;DHT22;14769;56.934;24.176;2022-12-16T00:23:24;-8.20;99.90
27270;DHT22;14769;56.934;24.176;2022-12-16T00:24:26;-8.20;99.90
27270;DHT22;14769;56.934;24.176;2022-12-16T00:25:27;-8.20;99.90
27270;DHT22;14769;56.934;24.176;2022-12-16T00:26:29;-8.20;99.90
27270;DHT22;14769;56.934;24.176;2022-12-16T00:27:31;-8.20;99.90
27270;DHT22;14769;56.934;24.176;2022-12-16T00:28:33;-8.30;99.90
27270;DHT22;14769;56.934;24.176;2022-12-16T00:29:34;-8.30;99.90
27270;DHT22;14769;56.934;24.176;2022-12-16T00:30:36;-8.30;99.90
27270;DHT22;14769;56.934;24.176;2022-12-16T00:31:38;-8.30;99.90
27270;DHT22;14769;56.934;24.176;2022-12-16T00:32:40;-8.30;99.90
27270;DHT22;14769;56.934;24.176;2022-12-16T00:33:41;-8.30;99.90
27270;DHT22;14769;56.934;24.176;2022-12-16T00:34:43;-8.40;99.90
27270;DHT22;14769;56.934;24.176;2022-12-16T00:35:45;-8.40;99.90
27270;DHT22;14769;56.934;24.176;2022-12-16T00:36:47;-8.40;99.90
27270;DHT22;14769;56.934;24.176;2022-12-16T00:37:48;-8.40;99.90
27270;DHT22;14769;56.934;24.176;2022-12-16T00:38:52;-8.40;99.90
27270;DHT22;14769;56.934;24.176;2022-12-16T00:39:53;-8.40;99.90
27270;DHT22;14769;56.934;24.176;2022-12-16T00:40:55;-8.40;99.90
27270;DHT22;14769;56.934;24.176;2022-12-16T00:41:57;-8.40;99.90
27270;DHT22;14769;56.934;24.176;2022-12-16T00:42:59;-8.40;99.90
27270;DHT22;14769;56.934;24.176;2022-12-16T00:44:01;-8.40;99.90
27270;DHT22;14769;56.934;24.176;2022-12-16T00:45:03;-8.40;99.90
27270;DHT22;14769;56.934;24.176;2022-12-16T00:46:06;-8.40;99.90
27270;DHT22;14769;56.934;24.176;2022-12-16T00:47:08;-8.40;99.90
27270;DHT22;14769;56.934;24.176;2022-12-16T00:48:11;-8.40;99.90
27270;DHT22;14769;56.934;24.176;2022-12-16T00:49:13;-8.40;99.90
27270;DHT22;14769;56.934;24.176;2022-12-16T00:50:15;-8.50;99.90
27270;DHT22;14769;56.934;24.176;2022-12-16T00:51:16;-8.50;99.90
27270;DHT22;14769;56.934;24.176;2022-12-16T00:52:21;-8.50;99.90
27270;DHT22;14769;56.934;24.176;2022-12-16T00:53:23;-8.50;99.90
27270;DHT22;14769;56.934;24.176;2022-12-16T00:54:24;-8.50;99.90
27270;DHT22;14769;56.934;24.176;2022-12-16T00:55:26;-8.50;99.90
27270;DHT22;14769;56.934;24.176;2022-12-16T00:56:28;-8.50;99.90
27270;DHT22;14769;56.934;24.176;2022-12-16T00:57:29;-8.50;99.90
27270;DHT22;14769;56.934;24.176;2022-12-16T00:58:31;-8.50;99.90
27270;DHT22;14769;56.934;24.176;2022-12-16T00:59:33;-8.50;99.90
27270;DHT22;14769;56.934;24.176;2022-12-16T01:00:34;-8.60;99.90
27270;DHT22;14769;56.934;24.176;2022-12-16T01:01:36;-8.50;99.90
27270;DHT22;14769;56.934;24.176;2022-12-16T01:02:42;-8.50;99.90
27270;DHT22;14769;56.934;24.176;2022-12-16T01:03:44;-8.60;99.90
27270;DHT22;14769;56.934;24.176;2022-12-16T01:04:46;-8.60;99.90
27270;DHT22;14769;56.934;24.176;2022-12-16T01:05:48;-8.60;99.90
27270;DHT22;14769;56.934;24.176;2022-12-16T01:06:49;-8.60;99.90
27270;DHT22;14769;56.934;24.176;2022-12-16T01:07:53;-8.60;99.90
27270;DHT22;14769;56.934;24.176;2022-12-16T01:08:54;-8.60;99.90
27270;DHT22;14769;56.934;24.176;2022-12-16T01:09:56;-8.60;99.90
27270;DHT22;14769;56.934;24.176;2022-12-16T01:10:58;-8.60;99.90
27270;DHT22;14769;56.934;24.176;2022-12-16T01:12:00;-8.60;99.90
27270;DHT22;14769;56.934;24.176;2022-12-16T01:13:02;-8.60;99.90
27270;DHT22;14769;56.934;24.176;2022-12-16T01:14:04;-8.50;99.90
27270;DHT22;14769;56.934;24.176;2022-12-16T01:15:05;-8.50;99.90
27270;DHT22;14769;56.934;24.176;2022-12-16T01:16:08;-8.50;99.90
27270;DHT22;14769;56.934;24.176;2022-12-16T01:17:09;-8.50;99.90
27270;DHT22;14769;56.934;24.176;2022-12-16T01:18:11;-8.50;99.90
27270;DHT22;14769;56.934;24.176;2022-12-16T01:19:13;-8.50;99.90
27270;DHT22;14769;56.934;24.176;2022-12-16T01:20:15;-8.50;99.90
27270;DHT22;14769;56.934;24.176;2022-12-16T01:21:16;-8.50;99.90
27270;DHT22;14769;56.934;24.176;2022-12-16T01:22:18;-8.50;99.90
27270;DHT22;14769;56.934;24.176;2022-12-16T01:23:20;-8.40;99.90
27270;DHT22;14769;56.934;24.176;2022-12-16T01:24:23;-8.40;99.90
27270;DHT22;14769;56.934;24.176;2022-12-16T01:25:24;-8.40;99.90
27270;DHT22;14769;56.934;24.176;2022-12-16T01:26:29;-8.40;99.90
27270;DHT22;14769;56.934;24.176;2022-12-16T01:27:32;-8.40;99.90
27270;DHT22;14769;56.934;24.176;2022-12-16T01:28:33;-8.40;99.90
27270;DHT22;14769;56.934;24.176;2022-12-16T01:29:35;-8.40;99.90
27270;DHT22;14769;56.934;24.176;2022-12-16T01:30:37;-8.40;99.90
27270;DHT22;14769;56.934;24.176;2022-12-16T01:31:38;-8.40;99.90
27270;DHT22;14769;56.934;24.176;2022-12-16T01:32:40;-8.40;99.90
27270;DHT22;14769;56.934;24.176;2022-12-16T01:33:42;-8.30;99.90
27270;DHT22;14769;56.934;24.176;2022-12-16T01:34:49;-8.30;99.90
27270;DHT22;14769;56.934;24.176;2022-12-16T01:36:03;-8.30;99.90
27270;DHT22;14769;56.934;24.176;2022-12-16T01:37:05;-8.30;99.90
27270;DHT22;14769;56.934;24.176;2022-12-16T01:38:06;-8.30;99.90
27270;DHT22;14769;56.934;24.176;2022-12-16T01:39:09;-8.30;99.90
27270;DHT22;14769;56.934;24.176;2022-12-16T01:40:15;-8.30;99.90
27270;DHT22;14769;56.934;24.176;2022-12-16T01:41:17;-8.30;99.90
27270;DHT22;14769;56.934;24.176;2022-12-16T01:42:20;-8.30;99.90
27270;DHT22;14769;56.934;24.176;2022-12-16T01:43:23;-8.30;99.90
27270;DHT22;14769;56.934;24.176;2022-12-16T01:44:26;-8.30;99.90
27270;DHT22;14769;56.934;24.176;2022-12-16T01:45:32;-8.20;99.90
27270;DHT22;14769;56.934;24.176;2022-12-16T01:46:34;-8.20;99.90
27270;DHT22;14769;56.934;24.176;2022-12-16T01:47:39;-8.20;99.90
27270;DHT22;14769;56.934;24.176;2022-12-16T01:48:55;-8.20;99.90
27270;DHT22;14769;56.934;24.176;2022-12-16T01:50:03;-8.20;99.90
27270;DHT22;14769;56.934;24.176;2022-12-16T01:51:06;-8.20;99.90
27270;DHT22;14769;56.934;24.176;2022-12-16T01:52:10;-8.20;99.90
27270;DHT22;14769;56.934;24.176;2022-12-16T01:53:13;-8.20;99.90
27270;DHT22;14769;56.934;24.176;2022-12-16T01:54:17;-8.20;99.90
27270;DHT22;14769;56.934;24.176;2022-12-16T01:55:27;-8.10;99.90
27270;DHT22;14769;56.934;24.176;2022-12-16T01:56:30;-8.10;99.90
27270;DHT22;14769;56.934;24.176;2022-12-16T01:57:37;-8.10;99.90
27270;DHT22;14769;56.934;24.176;2022-12-16T01:58:41;-8.10;99.90
27270;DHT22;14769;56.934;24.176;2022-12-16T01:59:45;-8.10;99.90
27270;DHT22;14769;56.934;24.176;2022-12-16T02:00:48;-8.10;99.90
27270;DHT22;14769;56.934;24.176;2022-12-16T02:01:52;-8.10;99.90
27270;DHT22;14769;56.934;24.176;2022-12-16T02:02:54;-8.10;99.90
27270;DHT22;14769;56.934;24.176;2022-12-16T02:03:57;-8.10;99.90
27270;DHT22;14769;56.934;24.176;2022-12-16T02:04:59;-8.10;99.90
27270;DHT22;14769;56.934;24.176;2022-12-16T02:06:19;-8.10;99.90
27270;DHT22;14769;56.934;24.176;2022-12-16T02:07:21;-8.10;99.90
27270;DHT22;14769;56.934;24.176;2022-12-16T02:08:22;-8.10;99.90
27270;DHT22;14769;56.934;24.176;2022-12-16T02:09:24;-8.00;99.90
27270;DHT22;14769;56.934;24.176;2022-12-16T02:10:29;-8.10;99.90
27270;DHT22;14769;56.934;24.176;2022-12-16T02:12:41;-8.10;99.90
27270;DHT22;14769;56.934;24.176;2022-12-16T02:14:58;-8.00;99.90
27270;DHT22;14769;56.934;24.176;2022-12-16T02:22:03;-8.00;99.90
27270;DHT22;14769;56.934;24.176;2022-12-16T02:32:42;-8.20;99.90
27270;DHT22;14769;56.934;24.176;2022-12-16T02:34:54;-8.10;99.90
27270;DHT22;14769;56.934;24.176;2022-12-16T02:37:23;-8.20;99.90
27270;DHT22;14769;56.934;24.176;2022-12-16T02:40:00;-8.20;99.90
27270;DHT22;14769;56.934;24.176;2022-12-16T02:41:05;-8.20;99.90
27270;DHT22;14769;56.934;24.176;2022-12-16T02:42:12;-8.20;99.90
27270;DHT22;14769;56.934;24.176;2022-12-16T02:43:21;-8.20;99.90
27270;DHT22;14769;56.934;24.176;2022-12-16T02:44:52;-8.20;99.90
27270;DHT22;14769;56.934;24.176;2022-12-16T02:45:55;-8.20;99.90
27270;DHT22;14769;56.934;24.176;2022-12-16T02:46:57;-8.20;99.90
27270;DHT22;14769;56.934;24.176;2022-12-16T02:47:59;-8.20;99.90
27270;DHT22;14769;56.934;24.176;2022-12-16T02:49:04;-8.20;99.90
27270;DHT22;14769;56.934;24.176;2022-12-16T02:50:17;-8.20;99.90
27270;DHT22;14769;56.934;24.176;2022-12-16T02:51:22;-8.20;99.90
27270;DHT22;14769;56.934;24.176;2022-12-16T02:52:28;-8.20;99.90
27270;DHT22;14769;56.934;24.176;2022-12-16T02:53:30;-8.20;99.90
27270;DHT22;14769;56.934;24.176;2022-12-16T02:54:38;-8.20;99.90
27270;DHT22;14769;56.934;24.176;2022-12-16T02:58:05;-8.20;99.90
27270;DHT22;14769;56.934;24.176;2022-12-16T03:00:14;-8.20;99.90
27270;DHT22;14769;56.934;24.176;2022-12-16T03:05:00;-8.30;99.90
27270;DHT22;14769;56.934;24.176;2022-12-16T03:06:03;-8.30;99.90
27270;DHT22;14769;56.934;24.176;2022-12-16T03:07:06;-8.30;99.90
27270;DHT22;14769;56.934;24.176;2022-12-16T03:08:11;-8.30;99.90
27270;DHT22;14769;56.934;24.176;2022-12-16T03:09:16;-8.30;99.90
27270;DHT22;14769;56.934;24.176;2022-12-16T03:10:20;-8.30;99.90
27270;DHT22;14769;56.934;24.176;2022-12-16T03:11:25;-8.30;99.90
27270;DHT22;14769;56.934;24.176;2022-12-16T03:12:28;-8.30;99.90
27270;DHT22;14769;56.934;24.176;2022-12-16T03:13:38;-8.30;99.90
27270;DHT22;14769;56.934;24.176;2022-12-16T03:14:42;-8.30;99.90
27270;DHT22;14769;56.934;24.176;2022-12-16T03:15:45;-8.30;99.90
27270;DHT22;14769;56.934;24.176;2022-12-16T03:16:48;-8.30;99.90
27270;DHT22;14769;56.934;24.176;2022-12-16T03:17:51;-8.30;99.90
27270;DHT22;14769;56.934;24.176;2022-12-16T03:18:56;-8.30;99.90
27270;DHT22;14769;56.934;24.176;2022-12-16T03:20:05;-8.30;99.90
27270;DHT22;14769;56.934;24.176;2022-12-16T03:21:08;-8.30;99.90
27270;DHT22;14769;56.934;24.176;2022-12-16T03:22:13;-8.30;99.90
27270;DHT22;14769;56.934;24.176;2022-12-16T03:23:18;-8.40;99.90
27270;DHT22;14769;56.934;24.176;2022-12-16T03:24:21;-8.30;99.90
27270;DHT22;14769;56.934;24.176;2022-12-16T03:25:23;-8.40;99.90
27270;DHT22;14769;56.934;24.176;2022-12-16T03:26:28;-8.40;99.90
27270;DHT22;14769;56.934;24.176;2022-12-16T03:27:38;-8.40;99.90
27270;DHT22;14769;56.934;24.176;2022-12-16T03:28:43;-8.40;99.90
27270;DHT22;14769;56.934;24.176;2022-12-16T03:31:00;-8.40;99.90
27270;DHT22;14769;56.934;24.176;2022-12-16T03:32:10;-8.40;99.90
27270;DHT22;14769;56.934;24.176;2022-12-16T03:33:34;-8.40;99.90
27270;DHT22;14769;56.934;24.176;2022-12-16T03:34:52;-8.40;99.90
27270;DHT22;14769;56.934;24.176;2022-12-16T03:35:57;-8.40;99.90
27270;DHT22;14769;56.934;24.176;2022-12-16T03:37:03;-8.40;99.90
27270;DHT22;14769;56.934;24.176;2022-12-16T03:38:06;-8.40;99.90
27270;DHT22;14769;56.934;24.176;2022-12-16T03:39:11;-8.40;99.90
27270;DHT22;14769;56.934;24.176;2022-12-16T03:40:14;-8.40;99.90
27270;DHT22;14769;56.934;24.176;2022-12-16T03:41:17;-8.40;99.90
27270;DHT22;14769;56.934;24.176;2022-12-16T03:42:19;-8.40;99.90
27270;DHT22;14769;56.934;24.176;2022-12-16T03:43:21;-8.40;99.90
27270;DHT22;14769;56.934;24.176;2022-12-16T03:44:24;-8.40;99.90
27270;DHT22;14769;56.934;24.176;2022-12-16T03:45:35;-8.40;99.90
27270;DHT22;14769;56.934;24.176;2022-12-16T03:46:38;-8.40;99.90
27270;DHT22;14769;56.934;24.176;2022-12-16T03:47:39;-8.40;99.90
27270;DHT22;14769;56.934;24.176;2022-12-16T03:48:48;-8.40;99.90
27270;DHT22;14769;56.934;24.176;2022-12-16T03:49:50;-8.40;99.90
27270;DHT22;14769;56.934;24.176;2022-12-16T03:50:52;-8.40;99.90
27270;DHT22;14769;56.934;24.176;2022-12-16T03:51:55;-8.40;99.90
27270;DHT22;14769;56.934;24.176;2022-12-16T03:52:57;-8.30;99.90
27270;DHT22;14769;56.934;24.176;2022-12-16T03:53:59;-8.40;99.90
27270;DHT22;14769;56.934;24.176;2022-12-16T03:55:01;-8.30;99.90
27270;DHT22;14769;56.934;24.176;2022-12-16T03:56:03;-8.30;99.90
27270;DHT22;14769;56.934;24.176;2022-12-16T03:57:05;-8.30;99.90
27270;DHT22;14769;56.934;24.176;2022-12-16T03:58:15;-8.30;99.90
27270;DHT22;14769;56.934;24.176;2022-12-16T03:59:17;-8.30;99.90
27270;DHT22;14769;56.934;24.176;2022-12-16T04:00:19;-8.30;99.90
27270;DHT22;14769;56.934;24.176;2022-12-16T04:01:21;-8.30;99.90
27270;DHT22;14769;56.934;24.176;2022-12-16T04:02:23;-8.30;99.90
27270;DHT22;14769;56.934;24.176;2022-12-16T04:03:26;-8.30;99.90
27270;DHT22;14769;56.934;24.176;2022-12-16T04:04:27;-8.30;99.90
27270;DHT22;14769;56.934;24.176;2022-12-16T04:05:29;-8.20;99.90
27270;DHT22;14769;56.934;24.176;2022-12-16T04:06:31;-8.20;99.90
27270;DHT22;14769;56.934;24.176;2022-12-16T04:07:32;-8.20;99.90
27270;DHT22;14769;56.934;24.176;2022-12-16T04:08:34;-8.20;99.90
27270;DHT22;14769;56.934;24.176;2022-12-16T04:09:36;-8.20;99.90
27270;DHT22;14769;56.934;24.176;2022-12-16T04:10:37;-8.20;99.90
27270;DHT22;14769;56.934;24.176;2022-12-16T04:11:59;-8.20;99.90
27270;DHT22;14769;56.934;24.176;2022-12-16T04:13:20;-8.20;99.90
27270;DHT22;14769;56.934;24.176;2022-12-16T04:14:40;-8.20;99.90
27270;DHT22;14769;56.934;24.176;2022-12-16T04:16:00;-8.10;99.90
27270;DHT22;14769;56.934;24.176;2022-12-16T04:17:20;-8.10;99.90
27270;DHT22;14769;56.934;24.176;2022-12-16T04:18:41;-8.10;99.90
27270;DHT22;14769;56.934;24.176;2022-12-16T04:20:01;-8.10;99.90
27270;DHT22;14769;56.934;24.176;2022-12-16T04:21:22;-8.10;99.90
27270;DHT22;14769;56.934;24.176;2022-12-16T04:22:44;-8.10;99.90
27270;DHT22;14769;56.934;24.176;2022-12-16T04:24:04;-8.10;99.90
27270;DHT22;14769;56.934;24.176;2022-12-16T04:25:23;-8.00;99.90
27270;DHT22;14769;56.934;24.176;2022-12-16T04:26:28;-8.10;99.90
27270;DHT22;14769;56.934;24.176;2022-12-16T04:27:30;-8.00;99.90
27270;DHT22;14769;56.934;24.176;2022-12-16T04:28:31;-8.00;99.90
27270;DHT22;14769;56.934;24.176;2022-12-16T04:29:33;-8.00;99.90
27270;DHT22;14769;56.934;24.176;2022-12-16T04:30:55;-8.00;99.90
27270;DHT22;14769;56.934;24.176;2022-12-16T04:31:57;-8.00;99.90
27270;DHT22;14769;56.934;24.176;2022-12-16T04:34:20;-8.00;99.90
27270;DHT22;14769;56.934;24.176;2022-12-16T04:35:29;-7.90;99.90
27270;DHT22;14769;56.934;24.176;2022-12-16T04:36:58;-7.90;99.90
27270;DHT22;14769;56.934;24.176;2022-12-16T04:38:18;-7.90;99.90
27270;DHT22;14769;56.934;24.176;2022-12-16T04:39:38;-7.90;99.90
27270;DHT22;14769;56.934;24.176;2022-12-16T04:40:59;-7.90;99.90
27270;DHT22;14769;56.934;24.176;2022-12-16T04:42:22;-7.80;99.90
27270;DHT22;14769;56.934;24.176;2022-12-16T04:43:42;-7.80;99.90
27270;DHT22;14769;56.934;24.176;2022-12-16T04:45:03;-7.80;99.90
27270;DHT22;14769;56.934;24.176;2022-12-16T04:46:23;-7.80;99.90
27270;DHT22;14769;56.934;24.176;2022-12-16T04:47:44;-7.70;99.90
27270;DHT22;14769;56.934;24.176;2022-12-16T04:49:04;-7.70;99.90
27270;DHT22;14769;56.934;24.176;2022-12-16T04:50:25;-7.70;99.90
27270;DHT22;14769;56.934;24.176;2022-12-16T04:51:45;-7.70;99.90
27270;DHT22;14769;56.934;24.176;2022-12-16T04:53:05;-7.70;99.90
27270;DHT22;14769;56.934;24.176;2022-12-16T04:54:26;-7.70;99.90
27270;DHT22;14769;56.934;24.176;2022-12-16T04:55:46;-7.60;99.90
27270;DHT22;14769;56.934;24.176;2022-12-16T04:57:06;-7.60;99.90
27270;DHT22;14769;56.934;24.176;2022-12-16T04:58:27;-7.60;99.90
27270;DHT22;14769;56.934;24.176;2022-12-16T04:59:47;-7.60;99.90
27270;DHT22;14769;56.934;24.176;2022-12-16T05:01:07;-7.50;99.90
27270;DHT22;14769;56.934;24.176;2022-12-16T05:02:28;-7.60;99.90
27270;DHT22;14769;56.934;24.176;2022-12-16T05:03:48;-7.50;99.90
27270;DHT22;14769;56.934;24.176;2022-12-16T05:05:08;-7.50;99.90
27270;DHT22;14769;56.934;24.176;2022-12-16T05:06:30;-7.50;99.90
27270;DHT22;14769;56.934;24.176;2022-12-16T05:07:50;-7.50;99.90
27270;DHT22;14769;56.934;24.176;2022-12-16T05:09:11;-7.50;99.90
27270;DHT22;14769;56.934;24.176;2022-12-16T05:10:31;-7.50;99.90
27270;DHT22;14769;56.934;24.176;2022-12-16T05:11:51;-7.40;99.90
27270;DHT22;14769;56.934;24.176;2022-12-16T05:13:11;-7.40;99.90
27270;DHT22;14769;56.934;24.176;2022-12-16T05:14:32;-7.40;99.90
27270;DHT22;14769;56.934;24.176;2022-12-16T05:15:52;-7.40;99.90
27270;DHT22;14769;56.934;24.176;2022-12-16T05:17:13;-7.40;99.90
27270;DHT22;14769;56.934;24.176;2022-12-16T05:18:33;-7.40;99.90
27270;DHT22;14769;56.934;24.176;2022-12-16T05:19:54;-7.30;99.90
27270;DHT22;14769;56.934;24.176;2022-12-16T05:21:14;-7.30;99.90
27270;DHT22;14769;56.934;24.176;2022-12-16T05:22:34;-7.30;99.90
27270;DHT22;14769;56.934;24.176;2022-12-16T05:23:54;-7.30;99.90
27270;DHT22;14769;56.934;24.176;2022-12-16T05:25:14;-7.30;99.90
27270;DHT22;14769;56.934;24.176;2022-12-16T05:26:35;-7.20;99.90
27270;DHT22;14769;56.934;24.176;2022-12-16T05:27:55;-7.20;99.90
27270;DHT22;14769;56.934;24.176;2022-12-16T05:29:15;-7.20;99.90
27270;DHT22;14769;56.934;24.176;2022-12-16T05:30:35;-7.20;99.90
27270;DHT22;14769;56.934;24.176;2022-12-16T05:31:56;-7.20;99.90
27270;DHT22;14769;56.934;24.176;2022-12-16T05:33:16;-7.20;99.90
27270;DHT22;14769;56.934;24.176;2022-12-16T05:34:36;-7.10;99.90
27270;DHT22;14769;56.934;24.176;2022-12-16T05:35:56;-7.10;99.90
27270;DHT22;14769;56.934;24.176;2022-12-16T05:37:17;-7.10;99.90
27270;DHT22;14769;56.934;24.176;2022-12-16T05:38:42;-7.10;99.90
27270;DHT22;14769;56.934;24.176;2022-12-16T05:40:02;-7.10;99.90
27270;DHT22;14769;56.934;24.176;2022-12-16T05:41:23;-7.10;99.90
27270;DHT22;14769;56.934;24.176;2022-12-16T05:42:44;-7.10;99.90
27270;DHT22;14769;56.934;24.176;2022-12-16T05:44:04;-7.10;99.90
27270;DHT22;14769;56.934;24.176;2022-12-16T05:45:24;-7.00;99.90
27270;DHT22;14769;56.934;24.176;2022-12-16T05:46:45;-7.00;99.90
27270;DHT22;14769;56.934;24.176;2022-12-16T05:48:05;-7.00;99.90
27270;DHT22;14769;56.934;24.176;2022-12-16T05:49:26;-7.00;99.90
27270;DHT22;14769;56.934;24.176;2022-12-16T05:50:46;-7.00;99.90
27270;DHT22;14769;56.934;24.176;2022-12-16T05:52:07;-7.00;99.90
27270;DHT22;14769;56.934;24.176;2022-12-16T05:53:27;-7.00;99.90
27270;DHT22;14769;56.934;24.176;2022-12-16T05:54:47;-6.90;99.90
27270;DHT22;14769;56.934;24.176;2022-12-16T05:56:08;-6.90;99.90
27270;DHT22;14769;56.934;24.176;2022-12-16T05:57:28;-6.90;99.90
27270;DHT22;14769;56.934;24.176;2022-12-16T05:58:48;-6.90;99.90
27270;DHT22;14769;56.934;24.176;2022-12-16T06:00:08;-6.90;99.90
27270;DHT22;14769;56.934;24.176;2022-12-16T06:01:28;-6.90;99.90
27270;DHT22;14769;56.934;24.176;2022-12-16T06:02:49;-6.80;99.90
27270;DHT22;14769;56.934;24.176;2022-12-16T06:04:10;-6.90;99.90
27270;DHT22;14769;56.934;24.176;2022-12-16T06:05:30;-6.90;99.90
27270;DHT22;14769;56.934;24.176;2022-12-16T06:06:51;-6.80;99.90
27270;DHT22;14769;56.934;24.176;2022-12-16T06:08:11;-6.80;99.90
27270;DHT22;14769;56.934;24.176;2022-12-16T06:09:32;-6.80;99.90
27270;DHT22;14769;56.934;24.176;2022-12-16T06:10:57;-6.80;99.90
27270;DHT22;14769;56.934;24.176;2022-12-16T06:12:17;-6.70;99.90
27270;DHT22;14769;56.934;24.176;2022-12-16T06:13:37;-6.70;99.90
27270;DHT22;14769;56.934;24.176;2022-12-16T06:14:57;-6.70;99.90
27270;DHT22;14769;56.934;24.176;2022-12-16T06:16:18;-6.70;99.90
27270;DHT22;14769;56.934;24.176;2022-12-16T06:17:56;-6.70;99.90
27270;DHT22;14769;56.934;24.176;2022-12-16T06:19:16;-6.70;99.90
27270;DHT22;14769;56.934;24.176;2022-12-16T06:20:37;-6.60;99.90
27270;DHT22;14769;56.934;24.176;2022-12-16T06:21:58;-6.60;99.90
27270;DHT22;14769;56.934;24.176;2022-12-16T06:23:18;-6.60;99.90
27270;DHT22;14769;56.934;24.176;2022-12-16T06:24:39;-6.60;99.90
27270;DHT22;14769;56.934;24.176;2022-12-16T06:25:59;-6.60;99.90
27270;DHT22;14769;56.934;24.176;2022-12-16T06:27:19;-6.60;99.90
27270;DHT22;14769;56.934;24.176;2022-12-16T06:28:40;-6.50;99.90
27270;DHT22;14769;56.934;24.176;2022-12-16T06:30:00;-6.50;99.90
27270;DHT22;14769;56.934;24.176;2022-12-16T06:31:21;-6.50;99.90
27270;DHT22;14769;56.934;24.176;2022-12-16T06:32:41;-6.50;99.90
27270;DHT22;14769;56.934;24.176;2022-12-16T06:34:02;-6.50;99.90
27270;DHT22;14769;56.934;24.176;2022-12-16T06:35:22;-6.40;99.90
27270;DHT22;14769;56.934;24.176;2022-12-16T06:36:42;-6.40;99.90
27270;DHT22;14769;56.934;24.176;2022-12-16T06:38:02;-6.40;99.90
27270;DHT22;14769;56.934;24.176;2022-12-16T06:39:23;-6.40;99.90
27270;DHT22;14769;56.934;24.176;2022-12-16T06:40:43;-6.40;99.90
27270;DHT22;14769;56.934;24.176;2022-12-16T06:42:03;-6.30;99.90
27270;DHT22;14769;56.934;24.176;2022-12-16T06:43:23;-6.30;99.90
27270;DHT22;14769;56.934;24.176;2022-12-16T06:44:43;-6.30;99.90
27270;DHT22;14769;56.934;24.176;2022-12-16T06:46:04;-6.30;99.90
27270;DHT22;14769;56.934;24.176;2022-12-16T06:47:24;-6.20;99.90
27270;DHT22;14769;56.934;24.176;2022-12-16T06:48:44;-6.20;99.90
27270;DHT22;14769;56.934;24.176;2022-12-16T06:50:05;-6.20;99.90
27270;DHT22;14769;56.934;24.176;2022-12-16T06:51:25;-6.00;99.90
27270;DHT22;14769;56.934;24.176;2022-12-16T06:52:46;-5.90;99.90
27270;DHT22;14769;56.934;24.176;2022-12-16T06:54:06;-5.90;99.90
27270;DHT22;14769;56.934;24.176;2022-12-16T06:55:27;-5.80;99.90
27270;DHT22;14769;56.934;24.176;2022-12-16T06:56:48;-5.80;99.90
27270;DHT22;14769;56.934;24.176;2022-12-16T06:58:08;-5.70;99.90
27270;DHT22;14769;56.934;24.176;2022-12-16T06:59:29;-5.70;99.90
27270;DHT22;14769;56.934;24.176;2022-12-16T07:00:49;-5.60;99.90
27270;DHT22;14769;56.934;24.176;2022-12-16T07:02:11;-5.60;99.90
27270;DHT22;14769;56.934;24.176;2022-12-16T07:03:31;-5.70;99.90
27270;DHT22;14769;56.934;24.176;2022-12-16T07:04:52;-5.70;99.90
27270;DHT22;14769;56.934;24.176;2022-12-16T07:06:12;-5.70;99.90
27270;DHT22;14769;56.934;24.176;2022-12-16T07:07:35;-5.70;99.90
27270;DHT22;14769;56.934;24.176;2022-12-16T07:08:55;-5.80;99.90
27270;DHT22;14769;56.934;24.176;2022-12-16T07:10:16;-5.80;99.90
27270;DHT22;14769;56.934;24.176;2022-12-16T07:11:36;-5.80;99.90
27270;DHT22;14769;56.934;24.176;2022-12-16T07:12:58;-5.80;99.90
27270;DHT22;14769;56.934;24.176;2022-12-16T07:14:19;-5.80;99.90
27270;DHT22;14769;56.934;24.176;2022-12-16T07:15:40;-5.80;99.90
27270;DHT22;14769;56.934;24.176;2022-12-16T07:17:00;-5.70;99.90
27270;DHT22;14769;56.934;24.176;2022-12-16T07:18:21;-5.70;99.90
27270;DHT22;14769;56.934;24.176;2022-12-16T07:19:41;-5.70;99.90
27270;DHT22;14769;56.934;24.176;2022-12-16T07:21:01;-5.70;99.90
27270;DHT22;14769;56.934;24.176;2022-12-16T07:22:22;-5.70;99.90
27270;DHT22;14769;56.934;24.176;2022-12-16T07:23:42;-5.70;99.90
27270;DHT22;14769;56.934;24.176;2022-12-16T07:25:03;-5.70;99.90
27270;DHT22;14769;56.934;24.176;2022-12-16T07:26:24;-5.70;99.90
27270;DHT22;14769;56.934;24.176;2022-12-16T07:27:46;-5.70;99.90
27270;DHT22;14769;56.934;24.176;2022-12-16T07:29:14;-5.60;99.90
27270;DHT22;14769;56.934;24.176;2022-12-16T07:30:34;-5.60;99.90
27270;DHT22;14769;56.934;24.176;2022-12-16T07:31:55;-5.60;99.90
27270;DHT22;14769;56.934;24.176;2022-12-16T07:33:15;-5.60;99.90
27270;DHT22;14769;56.934;24.176;2022-12-16T07:34:36;-5.50;99.90
27270;DHT22;14769;56.934;24.176;2022-12-16T07:35:57;-5.60;99.90
27270;DHT22;14769;56.934;24.176;2022-12-16T07:37:17;-5.50;99.90
27270;DHT22;14769;56.934;24.176;2022-12-16T07:38:38;-5.50;99.90
27270;DHT22;14769;56.934;24.176;2022-12-16T07:39:58;-5.50;99.90
27270;DHT22;14769;56.934;24.176;2022-12-16T07:41:19;-5.50;99.90
27270;DHT22;14769;56.934;24.176;2022-12-16T07:42:41;-5.40;99.90
27270;DHT22;14769;56.934;24.176;2022-12-16T07:44:02;-5.40;99.90
27270;DHT22;14769;56.934;24.176;2022-12-16T07:45:22;-5.50;99.90
27270;DHT22;14769;56.934;24.176;2022-12-16T07:46:46;-5.40;99.90
27270;DHT22;14769;56.934;24.176;2022-12-16T07:48:06;-5.40;99.90
27270;DHT22;14769;56.934;24.176;2022-12-16T07:49:27;-5.40;99.90
27270;DHT22;14769;56.934;24.176;2022-12-16T07:50:47;-5.40;99.90
27270;DHT22;14769;56.934;24.176;2022-12-16T07:52:09;-5.40;99.90
27270;DHT22;14769;56.934;24.176;2022-12-16T07:53:29;-5.30;99.90